Terminal Aerodrome Forecast
Issued by NWS

Home | Current Version | Previous Version | Text Only | Print | Product List | Glossary Off
Versions: 1 2 3 4 5 6 7 8 9 10 11 12 13 14 15

609
FTUS45 KGGW 130528
TAFSDY
TAF
KSDY 130528Z 1306/1406 30023G35KT P6SM FEW250
     FM131000 31019KT P6SM FEW040
     FM140300 29007KT P6SM BKN070=

USA.gov is the U.S. government's official web portal to all federal, state and local government web resources and services.